Time;durP1;ratioP1;P1;durP2;ratioP2;P2;SDS_P1;SDS_P2;PMS_P1;PMS_P2;Temp;Humidity;BMP_temperature;BMP_pressure;BME280_temperature;BME280_humidity;BME280_pressure;Samples;Min_cycle;Max_cycle;Signal;HPM_P1;HPM_P2
2024/01/31 00:00:30;;;;;;;17.07;12.33;;;6.60;13.80;;;;;;5019481;28;20462;-71
2024/01/31 00:02:57;;;;;;;18.70;13.00;;;6.60;13.90;;;;;;5022037;28;20982;-71
2024/01/31 00:05:24;;;;;;;16.70;13.10;;;6.60;13.90;;;;;;5022876;28;20458;-71
2024/01/31 00:07:52;;;;;;;16.23;13.07;;;6.50;13.90;;;;;;5024455;28;20482;-71
2024/01/31 00:10:19;;;;;;;17.53;12.90;;;6.50;14.00;;;;;;5024538;28;20459;-71
2024/01/31 00:12:46;;;;;;;16.93;13.47;;;6.50;14.10;;;;;;5022207;28;20459;-71
2024/01/31 00:15:13;;;;;;;19.87;13.90;;;6.50;14.20;;;;;;5022352;28;20447;-71
2024/01/31 00:17:40;;;;;;;17.67;12.47;;;6.50;14.30;;;;;;5026148;28;20908;-71
2024/01/31 00:20:08;;;;;;;18.43;12.10;;;6.40;14.40;;;;;;5024432;28;20462;-70
2024/01/31 00:22:35;;;;;;;17.30;12.53;;;6.50;14.60;;;;;;5020270;28;20476;-71
2024/01/31 00:25:03;;;;;;;16.80;12.40;;;6.50;14.60;;;;;;5019691;28;21177;-71
2024/01/31 00:27:30;;;;;;;16.70;12.33;;;6.40;14.50;;;;;;5028543;28;20478;-71
2024/01/31 00:29:57;;;;;;;18.30;12.40;;;6.40;14.50;;;;;;5032802;28;20459;-71
2024/01/31 00:32:23;;;;;;;19.23;13.40;;;6.40;14.50;;;;;;5028135;28;20502;-71
2024/01/31 00:34:50;;;;;;;18.97;13.03;;;6.40;14.60;;;;;;5027898;28;20488;-71
2024/01/31 00:37:17;;;;;;;18.97;11.87;;;6.40;14.60;;;;;;5024976;28;20474;-71
2024/01/31 00:39:47;;;;;;;16.50;12.10;;;6.40;15.30;;;;;;5028142;28;20467;-71
2024/01/31 00:42:16;;;;;;;17.50;13.03;;;6.40;14.80;;;;;;5025324;28;20463;-71
2024/01/31 00:44:43;;;;;;;17.50;12.00;;;6.50;14.90;;;;;;5025794;28;20485;-71
2024/01/31 00:47:10;;;;;;;19.70;12.87;;;6.50;14.90;;;;;;5026243;28;20471;-71
2024/01/31 00:49:37;;;;;;;16.17;11.53;;;6.50;14.90;;;;;;5027846;28;20466;-70
2024/01/31 00:52:04;;;;;;;18.90;12.47;;;6.50;14.90;;;;;;5026874;28;20971;-71
2024/01/31 00:54:31;;;;;;;17.70;13.30;;;6.50;14.80;;;;;;5028959;28;20463;-71
2024/01/31 00:56:58;;;;;;;16.80;12.10;;;6.60;14.90;;;;;;5028201;28;21021;-71
2024/01/31 00:59:26;;;;;;;19.50;12.30;;;6.60;14.90;;;;;;5029330;28;20482;-70
2024/01/31 01:01:53;;;;;;;18.50;12.80;;;6.60;14.80;;;;;;5027450;28;20478;-70
2024/01/31 01:04:20;;;;;;;18.50;12.10;;;6.60;14.80;;;;;;5028849;28;20505;-70
2024/01/31 01:06:46;;;;;;;16.97;12.67;;;6.50;14.80;;;;;;5028959;28;20482;-71
2024/01/31 01:09:13;;;;;;;19.83;12.77;;;6.50;14.90;;;;;;5020791;28;20455;-70
2024/01/31 01:11:40;;;;;;;18.97;11.63;;;6.50;14.90;;;;;;5028443;28;20462;-71
2024/01/31 01:14:07;;;;;;;18.77;11.70;;;6.50;14.90;;;;;;5029712;28;20462;-70
2024/01/31 01:16:35;;;;;;;20.87;13.00;;;6.40;14.80;;;;;;5030010;28;20956;-70
2024/01/31 01:19:03;;;;;;;18.60;12.73;;;6.40;14.90;;;;;;5025815;28;20483;-70
2024/01/31 01:21:30;;;;;;;17.77;12.53;;;6.40;14.80;;;;;;5026731;28;20459;-70
2024/01/31 01:23:57;;;;;;;19.43;12.93;;;6.30;14.90;;;;;;5029694;28;20467;-70
2024/01/31 01:26:23;;;;;;;17.03;12.83;;;6.30;15.00;;;;;;5027617;28;20474;-70
2024/01/31 01:28:50;;;;;;;16.93;11.57;;;6.30;15.00;;;;;;5029138;28;20954;-71
2024/01/31 01:31:16;;;;;;;17.53;11.83;;;6.30;14.90;;;;;;5024823;28;21046;-70
2024/01/31 01:33:44;;;;;;;16.73;11.63;;;6.30;14.80;;;;;;5027944;28;20463;-70
2024/01/31 01:36:11;;;;;;;18.27;12.67;;;6.30;14.70;;;;;;5024340;28;20200;-71
2024/01/31 01:38:38;;;;;;;16.80;11.10;;;6.30;14.70;;;;;;5025487;28;20485;-70
2024/01/31 01:41:05;;;;;;;18.17;12.50;;;6.30;14.70;;;;;;5026456;28;20470;-71
2024/01/31 01:43:32;;;;;;;16.00;12.67;;;6.20;14.60;;;;;;5029868;28;20458;-71
2024/01/31 01:46:09;;;;;;;16.63;11.40;;;6.20;14.80;;;;;;5027153;28;20463;-71
2024/01/31 01:48:36;;;;;;;19.80;13.30;;;6.10;14.80;;;;;;5021735;28;21049;-70
2024/01/31 01:51:05;;;;;;;20.30;13.80;;;6.00;14.80;;;;;;5025440;28;20462;-71
2024/01/31 01:53:35;;;;;;;20.37;13.70;;;6.00;14.90;;;;;;5023597;28;20464;-71
2024/01/31 01:56:03;;;;;;;20.10;14.77;;;6.00;14.90;;;;;;5027055;28;20459;-70
2024/01/31 01:58:31;;;;;;;21.30;15.00;;;6.00;15.00;;;;;;5023268;28;20514;-71
2024/01/31 02:01:00;;;;;;;17.27;13.23;;;6.00;15.50;;;;;;5027562;28;20482;-71
2024/01/31 02:03:29;;;;;;;23.60;14.60;;;6.00;15.60;;;;;;5026514;28;21015;-71
2024/01/31 02:05:57;;;;;;;21.17;14.80;;;6.00;15.80;;;;;;5027546;28;20459;-71
2024/01/31 02:08:27;;;;;;;20.87;13.90;;;6.00;15.70;;;;;;5018911;28;21066;-70
2024/01/31 02:10:54;;;;;;;20.50;14.07;;;6.00;15.90;;;;;;5024008;28;20978;-70
2024/01/31 02:13:21;;;;;;;20.40;15.20;;;6.00;15.90;;;;;;5026573;28;20470;-71
2024/01/31 02:15:54;;;;;;;20.63;13.80;;;6.00;16.00;;;;;;5027852;28;20470;-71
2024/01/31 02:18:21;;;;;;;17.87;13.53;;;6.00;15.90;;;;;;5025268;28;20487;-70
2024/01/31 02:20:48;;;;;;;20.57;15.10;;;5.90;15.90;;;;;;5029472;28;20466;-71
2024/01/31 02:23:16;;;;;;;19.63;14.60;;;5.90;15.80;;;;;;5027031;28;20950;-71
2024/01/31 02:25:43;;;;;;;23.87;15.60;;;5.90;16.00;;;;;;5024046;28;20459;-70
2024/01/31 02:28:10;;;;;;;22.50;16.17;;;5.80;16.20;;;;;;5025271;28;20494;-71
2024/01/31 02:30:37;;;;;;;25.70;17.10;;;5.80;16.30;;;;;;5028219;28;20474;-70
2024/01/31 02:33:04;;;;;;;26.03;16.20;;;5.80;16.40;;;;;;5026666;28;20466;-70
2024/01/31 02:35:33;;;;;;;24.20;15.57;;;5.80;16.60;;;;;;5022667;28;20463;-70
2024/01/31 02:37:59;;;;;;;22.40;16.50;;;5.70;16.90;;;;;;5023257;28;20502;-71
2024/01/31 02:40:28;;;;;;;27.70;16.80;;;5.70;16.90;;;;;;5021641;28;20463;-70
2024/01/31 02:42:56;;;;;;;21.53;14.70;;;5.70;17.10;;;;;;5027859;28;20459;-70
2024/01/31 02:45:22;;;;;;;24.17;15.40;;;5.70;17.20;;;;;;5025834;28;20459;-71
2024/01/31 02:47:49;;;;;;;26.67;15.23;;;5.70;17.10;;;;;;5024032;28;20521;-70
2024/01/31 02:50:16;;;;;;;24.33;16.00;;;5.70;17.10;;;;;;5026766;28;20450;-70
2024/01/31 02:52:43;;;;;;;25.00;17.90;;;5.70;17.20;;;;;;5023409;28;20475;-70
2024/01/31 02:55:10;;;;;;;19.03;14.33;;;5.70;17.30;;;;;;5028301;28;20939;-70
2024/01/31 02:57:38;;;;;;;19.87;14.97;;;5.70;17.00;;;;;;5022672;28;20490;-70
2024/01/31 03:00:07;;;;;;;22.70;16.67;;;5.70;17.10;;;;;;5025292;28;20491;-70
2024/01/31 03:02:34;;;;;;;22.27;15.50;;;5.60;16.90;;;;;;5026394;28;20468;-70
2024/01/31 03:05:01;;;;;;;22.93;15.40;;;5.60;16.90;;;;;;5027611;28;20482;-70
2024/01/31 03:07:27;;;;;;;20.87;15.73;;;5.60;17.10;;;;;;5021280;28;20495;-70
2024/01/31 03:09:54;;;;;;;21.70;16.80;;;5.60;17.20;;;;;;5026430;28;20459;-70
2024/01/31 03:12:21;;;;;;;22.77;16.17;;;5.70;17.40;;;;;;5025781;28;20558;-70
2024/01/31 03:14:49;;;;;;;21.63;15.10;;;5.70;17.40;;;;;;5028608;28;20470;-71
2024/01/31 03:17:16;;;;;;;25.50;16.40;;;5.70;17.40;;;;;;5023412;28;20487;-71
2024/01/31 03:19:43;;;;;;;21.83;15.93;;;5.70;17.50;;;;;;5027062;28;20547;-70
2024/01/31 03:22:10;;;;;;;22.53;16.20;;;5.70;17.60;;;;;;5026525;28;20466;-71
2024/01/31 03:24:38;;;;;;;23.20;17.33;;;5.70;17.70;;;;;;5024278;28;21192;-70
2024/01/31 03:27:06;;;;;;;21.87;16.07;;;5.70;17.70;;;;;;5024104;28;20487;-70
2024/01/31 03:29:33;;;;;;;21.80;15.47;;;5.70;17.90;;;;;;5026125;28;20463;-70
2024/01/31 03:32:02;;;;;;;20.63;16.03;;;5.70;18.00;;;;;;5024510;28;20550;-70
2024/01/31 03:34:29;;;;;;;24.63;16.10;;;5.70;18.00;;;;;;5027005;28;20463;-70
2024/01/31 03:36:56;;;;;;;24.10;16.90;;;5.70;18.00;;;;;;5027327;28;20485;-70
2024/01/31 03:39:23;;;;;;;26.40;17.90;;;5.70;18.10;;;;;;5020042;28;20510;-70
2024/01/31 03:41:50;;;;;;;26.40;17.23;;;5.70;18.10;;;;;;5027384;28;20462;-70
2024/01/31 03:44:16;;;;;;;28.13;18.30;;;5.70;18.10;;;;;;5023331;28;20530;-70
2024/01/31 03:46:43;;;;;;;24.23;18.10;;;5.70;18.10;;;;;;5024920;28;20483;-70
2024/01/31 03:49:11;;;;;;;25.00;17.07;;;5.70;18.10;;;;;;5022566;28;20455;-70
2024/01/31 03:51:38;;;;;;;23.63;16.63;;;5.70;18.00;;;;;;5022004;28;20494;-70
2024/01/31 03:54:05;;;;;;;21.77;17.57;;;5.70;17.90;;;;;;5055596;22;20509;-69
2024/01/31 03:56:32;;;;;;;25.93;17.83;;;5.70;17.90;;;;;;5040560;28;20623;-70
2024/01/31 03:58:59;;;;;;;28.00;17.20;;;5.70;17.80;;;;;;5038204;28;20474;-69
2024/01/31 04:01:25;;;;;;;24.37;17.40;;;5.70;17.90;;;;;;5050822;28;20473;-69
2024/01/31 04:03:52;;;;;;;28.60;17.23;;;5.70;17.90;;;;;;5052971;28;20988;-69
2024/01/31 04:06:20;;;;;;;25.40;19.07;;;5.70;17.90;;;;;;5051849;28;20821;-69
2024/01/31 04:08:47;;;;;;;24.13;17.17;;;5.70;17.90;;;;;;5050343;28;20569;-69
2024/01/31 04:11:14;;;;;;;23.87;17.97;;;5.70;17.90;;;;;;5054575;28;20465;-69
2024/01/31 04:13:44;;;;;;;26.40;18.60;;;5.70;17.90;;;;;;5055665;28;21063;-69
2024/01/31 04:16:15;;;;;;;23.53;17.30;;;5.70;17.90;;;;;;5050369;28;20453;-69
2024/01/31 04:18:42;;;;;;;25.60;17.80;;;5.70;17.90;;;;;;5052123;28;20485;-69
2024/01/31 04:21:08;;;;;;;24.37;18.40;;;5.80;17.70;;;;;;5050489;28;20466;-70
2024/01/31 04:23:37;;;;;;;22.43;16.57;;;5.90;17.90;;;;;;5051507;28;20466;-70
2024/01/31 04:26:04;;;;;;;23.20;15.53;;;5.90;17.90;;;;;;5053007;28;20460;-71
2024/01/31 04:28:31;;;;;;;20.23;15.17;;;6.00;17.60;;;;;;5050622;28;21010;-71
2024/01/31 04:30:58;;;;;;;22.23;14.60;;;6.00;17.50;;;;;;5051199;28;20509;-70
2024/01/31 04:33:25;;;;;;;23.67;15.30;;;6.00;17.50;;;;;;5056124;28;20524;-71
2024/01/31 04:35:52;;;;;;;23.23;15.30;;;6.00;17.60;;;;;;5058324;28;20466;-71
2024/01/31 04:38:19;;;;;;;25.10;14.97;;;6.00;17.60;;;;;;5073334;28;20458;-71
2024/01/31 04:40:47;;;;;;;22.70;15.40;;;6.00;17.80;;;;;;5072917;28;20465;-71
2024/01/31 04:43:16;;;;;;;21.03;14.07;;;5.90;17.90;;;;;;5049537;28;20472;-71
2024/01/31 04:45:43;;;;;;;21.33;15.10;;;5.90;18.10;;;;;;5051670;28;20505;-71
2024/01/31 04:48:10;;;;;;;19.93;14.90;;;5.80;18.10;;;;;;5052134;28;21021;-71
2024/01/31 04:50:37;;;;;;;19.87;14.20;;;5.80;18.60;;;;;;5052094;28;20742;-71
2024/01/31 04:53:04;;;;;;;21.10;15.00;;;5.80;18.10;;;;;;5049548;28;20477;-71
2024/01/31 04:55:30;;;;;;;21.70;15.20;;;5.80;18.10;;;;;;5053223;28;20465;-71
2024/01/31 04:57:59;;;;;;;25.70;14.90;;;5.80;17.90;;;;;;5052498;28;20496;-71
2024/01/31 05:00:26;;;;;;;24.60;15.43;;;5.80;18.00;;;;;;5050299;28;20481;-71
2024/01/31 05:02:53;;;;;;;21.97;14.23;;;5.80;17.90;;;;;;5052618;28;20457;-71
2024/01/31 05:05:20;;;;;;;20.00;12.93;;;5.90;17.70;;;;;;5049538;28;20877;-71
2024/01/31 05:07:47;;;;;;;20.97;14.63;;;5.90;17.60;;;;;;5046953;28;20517;-71
2024/01/31 05:10:14;;;;;;;17.43;13.20;;;5.90;17.70;;;;;;5052497;28;20450;-71
2024/01/31 05:12:41;;;;;;;18.83;12.43;;;6.00;17.50;;;;;;5045223;28;20472;-71
2024/01/31 05:15:10;;;;;;;18.13;12.57;;;6.00;17.50;;;;;;5046242;28;20530;-71
2024/01/31 05:17:37;;;;;;;18.03;12.37;;;6.00;17.40;;;;;;5046562;28;20481;-71
2024/01/31 05:20:04;;;;;;;19.17;14.00;;;6.00;17.30;;;;;;5049210;28;20481;-71
2024/01/31 05:22:31;;;;;;;20.93;13.30;;;6.00;17.30;;;;;;5045990;28;20475;-71
2024/01/31 05:24:57;;;;;;;17.73;12.80;;;6.00;17.20;;;;;;5047696;28;21167;-71
2024/01/31 05:27:24;;;;;;;20.33;12.57;;;6.00;17.00;;;;;;5042355;28;20478;-71
2024/01/31 05:29:51;;;;;;;20.47;13.57;;;6.10;17.60;;;;;;5048189;28;20533;-71
2024/01/31 05:32:19;;;;;;;17.20;12.53;;;6.10;16.90;;;;;;5047223;28;20476;-71
2024/01/31 05:34:46;;;;;;;18.37;12.93;;;6.10;16.90;;;;;;5048920;28;20454;-71
2024/01/31 05:37:13;;;;;;;20.57;15.03;;;6.10;16.80;;;;;;5044505;28;20485;-71
2024/01/31 05:39:40;;;;;;;22.77;15.47;;;6.10;16.90;;;;;;5051353;28;20493;-70
2024/01/31 05:42:06;;;;;;;18.90;12.70;;;6.20;16.80;;;;;;5050086;28;20458;-71
2024/01/31 05:44:33;;;;;;;18.80;12.80;;;6.20;16.80;;;;;;5050208;28;20454;-71
2024/01/31 05:47:00;;;;;;;20.77;13.77;;;6.20;16.80;;;;;;5048504;28;20631;-71
2024/01/31 05:49:28;;;;;;;23.33;13.90;;;6.20;16.80;;;;;;5049345;28;20462;-71
2024/01/31 05:51:55;;;;;;;20.37;14.33;;;6.20;16.90;;;;;;5047243;28;20929;-71
2024/01/31 05:54:22;;;;;;;16.80;12.80;;;6.20;16.90;;;;;;5047544;28;20469;-71
2024/01/31 05:56:51;;;;;;;18.87;13.70;;;6.20;16.80;;;;;;5048172;28;20497;-71
2024/01/31 05:59:17;;;;;;;22.47;13.63;;;6.20;16.70;;;;;;5051429;28;20476;-71
2024/01/31 06:01:44;;;;;;;19.80;14.63;;;6.20;16.70;;;;;;5046912;28;20553;-71
2024/01/31 06:04:11;;;;;;;19.43;13.00;;;6.20;16.80;;;;;;5051887;28;20468;-71
2024/01/31 06:06:39;;;;;;;18.17;13.37;;;6.20;16.70;;;;;;5046543;28;20458;-71
2024/01/31 06:09:06;;;;;;;20.77;13.63;;;6.20;16.70;;;;;;5048274;28;20949;-71
2024/01/31 06:11:33;;;;;;;20.97;12.90;;;6.20;16.80;;;;;;5043771;28;20462;-71
2024/01/31 06:14:00;;;;;;;19.70;13.67;;;6.20;16.70;;;;;;5042544;28;20463;-70
2024/01/31 06:16:26;;;;;;;19.10;13.50;;;6.20;16.60;;;;;;5044720;28;20462;-71
2024/01/31 06:18:53;;;;;;;17.87;13.17;;;6.20;16.70;;;;;;5048300;28;20942;-71
2024/01/31 06:21:20;;;;;;;20.10;13.80;;;6.20;16.70;;;;;;5046045;28;20477;-71
2024/01/31 06:23:48;;;;;;;19.03;14.07;;;6.30;16.80;;;;;;5046398;28;20458;-71
2024/01/31 06:26:15;;;;;;;18.10;13.80;;;6.30;16.70;;;;;;5047622;28;20980;-71
2024/01/31 06:28:42;;;;;;;20.63;13.67;;;6.30;16.70;;;;;;5048354;28;20492;-70
2024/01/31 06:31:16;;;;;;;20.63;13.53;;;6.30;16.70;;;;;;5046291;28;20489;-68
2024/01/31 06:33:43;;;;;;;19.70;15.10;;;6.30;16.90;;;;;;5044144;28;20461;-68
2024/01/31 06:36:10;;;;;;;24.20;14.50;;;6.30;17.00;;;;;;5040049;28;20845;-70
2024/01/31 06:38:37;;;;;;;20.53;13.40;;;6.30;17.00;;;;;;5046521;28;20482;-70
2024/01/31 06:41:05;;;;;;;21.30;14.53;;;6.30;17.10;;;;;;5041253;28;20478;-71
2024/01/31 06:43:32;;;;;;;22.30;15.10;;;6.30;17.10;;;;;;5047490;28;20466;-70
2024/01/31 06:45:58;;;;;;;23.83;16.80;;;6.30;17.10;;;;;;5045819;28;20989;-71
2024/01/31 06:48:25;;;;;;;22.47;17.10;;;6.30;17.00;;;;;;5047336;28;20486;-70
2024/01/31 06:50:52;;;;;;;22.07;15.90;;;6.30;17.00;;;;;;5047137;28;20450;-71
2024/01/31 06:53:19;;;;;;;21.47;16.33;;;6.30;16.90;;;;;;5047435;28;22851;-70
2024/01/31 06:55:45;;;;;;;24.10;19.47;;;6.30;16.90;;;;;;5043467;28;20466;-70
2024/01/31 06:58:14;;;;;;;25.60;19.10;;;6.30;16.90;;;;;;5044481;28;20485;-70
2024/01/31 07:00:40;;;;;;;20.70;15.07;;;6.30;17.00;;;;;;5046694;28;20979;-70
2024/01/31 07:03:08;;;;;;;19.97;13.93;;;6.30;16.90;;;;;;5044552;28;20454;-70
2024/01/31 07:05:35;;;;;;;21.10;13.17;;;6.30;16.80;;;;;;5042795;28;20501;-71
2024/01/31 07:08:01;;;;;;;17.00;11.97;;;6.30;16.80;;;;;;5042155;28;20482;-70
2024/01/31 07:10:28;;;;;;;17.93;12.63;;;6.40;16.70;;;;;;5047577;28;20556;-70
2024/01/31 07:12:55;;;;;;;20.97;14.33;;;6.30;16.50;;;;;;5045981;28;20457;-70
2024/01/31 07:15:23;;;;;;;21.00;14.93;;;6.40;16.60;;;;;;5044497;28;20458;-70
2024/01/31 07:17:50;;;;;;;19.10;14.20;;;6.40;16.70;;;;;;5042628;28;20513;-70
2024/01/31 07:20:18;;;;;;;21.97;14.10;;;6.40;16.60;;;;;;5041292;28;20492;-70
2024/01/31 07:22:45;;;;;;;19.53;15.13;;;6.50;16.50;;;;;;5045925;28;20454;-71
2024/01/31 07:25:13;;;;;;;22.40;14.57;;;6.50;16.60;;;;;;5044239;28;21024;-70
2024/01/31 07:27:41;;;;;;;19.80;14.23;;;6.50;16.60;;;;;;5041037;28;20486;-70
2024/01/31 07:30:10;;;;;;;21.63;13.70;;;6.50;16.50;;;;;;5048626;28;20507;-70
2024/01/31 07:32:39;;;;;;;19.73;13.87;;;6.60;16.50;;;;;;5046005;28;20486;-71
2024/01/31 07:35:07;;;;;;;19.97;13.50;;;6.60;16.50;;;;;;5045433;28;20454;-71
2024/01/31 07:37:35;;;;;;;17.40;13.23;;;6.60;16.40;;;;;;5052216;28;20508;-70
2024/01/31 07:40:04;;;;;;;18.50;13.83;;;6.60;16.20;;;;;;5054687;28;20516;-70
2024/01/31 07:42:30;;;;;;;18.37;12.63;;;6.70;16.20;;;;;;5047052;28;20466;-70
2024/01/31 07:44:57;;;;;;;17.77;12.27;;;6.70;16.00;;;;;;5043841;28;20458;-70
2024/01/31 07:47:24;;;;;;;23.57;14.10;;;6.70;16.10;;;;;;5042368;28;20482;-70
2024/01/31 07:49:52;;;;;;;19.57;12.30;;;6.80;16.00;;;;;;5042399;28;20458;-70
2024/01/31 07:52:19;;;;;;;20.20;13.73;;;6.80;16.00;;;;;;5042444;28;20470;-70
2024/01/31 07:54:46;;;;;;;16.63;12.13;;;6.80;15.80;;;;;;5045225;28;20477;-70
2024/01/31 07:57:13;;;;;;;19.30;12.83;;;6.90;15.70;;;;;;5044451;28;20490;-70
2024/01/31 07:59:40;;;;;;;18.27;12.47;;;6.90;15.50;;;;;;5042984;28;20966;-70
2024/01/31 08:02:06;;;;;;;19.97;12.90;;;6.90;15.70;;;;;;5043317;28;20485;-70
2024/01/31 08:04:33;;;;;;;18.50;13.07;;;7.00;15.70;;;;;;5041257;28;20463;-70
2024/01/31 08:07:01;;;;;;;20.33;13.67;;;7.00;15.70;;;;;;5042455;28;20524;-70
2024/01/31 08:09:29;;;;;;;18.83;13.47;;;7.00;15.60;;;;;;5046314;28;20462;-70
2024/01/31 08:11:57;;;;;;;21.73;13.13;;;7.10;15.60;;;;;;5043460;28;20465;-70
2024/01/31 08:14:23;;;;;;;17.60;12.10;;;7.10;15.50;;;;;;5046445;28;20472;-70
2024/01/31 08:16:51;;;;;;;20.60;14.17;;;7.10;15.60;;;;;;5040829;28;21184;-70
2024/01/31 08:19:18;;;;;;;19.57;12.93;;;7.10;15.70;;;;;;5046563;28;20457;-70
2024/01/31 08:21:45;;;;;;;19.00;12.93;;;7.20;15.80;;;;;;5044345;28;21025;-70
2024/01/31 08:24:13;;;;;;;16.17;11.80;;;7.30;15.90;;;;;;5043807;28;21148;-70
2024/01/31 08:26:40;;;;;;;17.53;13.10;;;7.30;15.80;;;;;;5048417;28;20465;-70
2024/01/31 08:29:07;;;;;;;19.60;12.73;;;7.40;15.60;;;;;;5041264;28;20461;-70
2024/01/31 08:31:33;;;;;;;17.43;12.37;;;7.50;15.60;;;;;;5043189;28;21021;-70
2024/01/31 08:34:00;;;;;;;18.63;12.17;;;7.60;15.20;;;;;;5044494;28;20458;-70
2024/01/31 08:36:27;;;;;;;16.27;10.40;;;7.60;14.70;;;;;;5046654;28;20484;-70
2024/01/31 08:38:54;;;;;;;17.30;11.93;;;7.70;14.50;;;;;;5046583;28;20471;-70
2024/01/31 08:41:22;;;;;;;15.70;10.53;;;7.80;13.90;;;;;;5046979;28;20486;-70
2024/01/31 08:43:49;;;;;;;16.03;11.27;;;7.80;14.00;;;;;;5048088;28;20967;-70
2024/01/31 08:46:15;;;;;;;15.67;10.40;;;7.90;14.20;;;;;;5050082;28;20942;-69
2024/01/31 08:48:41;;;;;;;17.47;12.27;;;7.90;14.30;;;;;;5045627;28;20485;-69
2024/01/31 08:51:09;;;;;;;14.23;10.40;;;7.90;14.20;;;;;;5049006;28;20290;-69
2024/01/31 08:53:36;;;;;;;15.30;11.97;;;8.00;14.30;;;;;;5049383;28;20469;-69
2024/01/31 08:56:03;;;;;;;16.90;13.17;;;8.00;14.20;;;;;;5044815;28;20462;-69
2024/01/31 08:58:31;;;;;;;16.23;12.50;;;8.10;14.20;;;;;;5051492;28;20470;-69
2024/01/31 09:00:59;;;;;;;15.00;11.50;;;8.10;14.10;;;;;;5040970;28;20482;-69
2024/01/31 09:03:26;;;;;;;15.67;11.70;;;8.10;14.10;;;;;;5043556;28;20470;-69
2024/01/31 09:05:53;;;;;;;16.27;12.40;;;8.20;14.20;;;;;;5046873;28;20488;-69
2024/01/31 09:08:20;;;;;;;15.80;11.90;;;8.20;14.20;;;;;;5046998;28;20469;-69
2024/01/31 09:10:47;;;;;;;16.93;11.90;;;8.30;14.20;;;;;;5047934;28;20966;-69
2024/01/31 09:13:14;;;;;;;18.27;11.70;;;8.30;14.50;;;;;;5047463;28;20458;-69
2024/01/31 09:15:43;;;;;;;16.60;11.10;;;8.40;13.80;;;;;;5044039;28;20480;-69
2024/01/31 09:18:09;;;;;;;15.57;11.63;;;8.40;13.60;;;;;;5047546;28;20572;-69
2024/01/31 09:20:37;;;;;;;16.23;12.87;;;8.40;13.60;;;;;;5046125;28;20935;-69
2024/01/31 09:23:04;;;;;;;17.07;12.33;;;8.40;13.60;;;;;;5046538;28;20474;-69
2024/01/31 09:25:30;;;;;;;18.23;12.67;;;8.40;13.60;;;;;;5049309;28;20523;-69
2024/01/31 09:27:57;;;;;;;19.60;13.00;;;8.40;13.60;;;;;;5044317;28;21009;-69
2024/01/31 09:30:24;;;;;;;14.00;11.20;;;8.40;13.70;;;;;;5046657;28;20462;-69
2024/01/31 09:32:52;;;;;;;16.47;12.63;;;8.50;13.60;;;;;;5050920;28;20457;-69
2024/01/31 09:35:19;;;;;;;16.50;12.50;;;8.50;13.50;;;;;;5046784;28;20971;-68
2024/01/31 09:37:46;;;;;;;16.10;12.43;;;8.50;13.50;;;;;;5049125;28;21072;-69
2024/01/31 09:40:15;;;;;;;16.07;12.10;;;8.50;13.40;;;;;;5046765;28;20466;-68
2024/01/31 09:42:42;;;;;;;18.90;12.77;;;8.50;13.40;;;;;;5050585;28;20470;-68
2024/01/31 09:45:12;;;;;;;17.63;13.10;;;8.50;13.60;;;;;;5044784;28;20501;-68
2024/01/31 09:47:41;;;;;;;19.30;13.50;;;8.50;13.70;;;;;;5045026;28;20518;-68
2024/01/31 09:50:10;;;;;;;18.30;13.17;;;8.50;13.70;;;;;;5044729;28;20469;-68
2024/01/31 09:52:39;;;;;;;19.33;13.07;;;8.50;13.80;;;;;;5059978;22;20430;-69
2024/01/31 09:55:10;;;;;;;18.20;13.63;;;8.50;13.80;;;;;;5028227;28;20466;-69
2024/01/31 09:57:37;;;;;;;16.53;12.60;;;8.50;13.80;;;;;;5026940;28;20494;-66
2024/01/31 10:00:05;;;;;;;18.37;13.40;;;8.50;13.80;;;;;;5030970;28;20463;-69
2024/01/31 10:02:32;;;;;;;20.53;13.37;;;8.40;13.80;;;;;;5027553;28;20478;-68
2024/01/31 10:04:59;;;;;;;17.50;13.50;;;8.40;13.90;;;;;;5029361;28;20462;-68
2024/01/31 10:07:30;;;;;;;17.23;13.20;;;8.40;13.90;;;;;;5026077;28;20478;-68
2024/01/31 10:09:57;;;;;;;17.57;13.40;;;8.50;13.90;;;;;;5032017;28;20455;-68
2024/01/31 10:12:24;;;;;;;16.70;13.07;;;8.60;13.90;;;;;;5029242;28;20937;-68
2024/01/31 10:14:52;;;;;;;22.60;15.60;;;8.60;13.80;;;;;;5027980;28;20541;-68
2024/01/31 10:17:21;;;;;;;26.90;16.10;;;8.70;13.70;;;;;;5033181;28;20485;-68
2024/01/31 10:19:48;;;;;;;20.63;14.07;;;8.80;13.60;;;;;;5023710;28;21015;-68
2024/01/31 10:22:15;;;;;;;19.73;15.83;;;8.80;13.50;;;;;;5026987;28;20483;-67
2024/01/31 10:24:47;;;;;;;22.83;14.23;;;8.90;13.50;;;;;;5023040;28;20467;-68
2024/01/31 10:27:14;;;;;;;21.23;14.80;;;9.00;13.40;;;;;;5033543;28;20515;-66
2024/01/31 10:29:41;;;;;;;19.90;14.10;;;9.00;13.30;;;;;;5028533;28;20963;-66
2024/01/31 10:32:08;;;;;;;20.03;15.50;;;9.10;13.30;;;;;;5026250;28;20482;-68
2024/01/31 10:34:35;;;;;;;17.50;13.93;;;9.20;13.20;;;;;;5028142;28;20548;-70
2024/01/31 10:37:02;;;;;;;20.07;14.03;;;9.30;13.00;;;;;;5027554;28;21065;-68
2024/01/31 10:39:29;;;;;;;20.17;13.80;;;9.40;12.80;;;;;;5029552;28;20836;-67
2024/01/31 10:42:01;;;;;;;20.70;15.60;;;9.40;12.70;;;;;;5025396;28;20472;-67
2024/01/31 10:44:29;;;;;;;22.77;14.47;;;9.50;12.40;;;;;;5019203;28;20458;-68
2024/01/31 10:46:55;;;;;;;19.80;14.70;;;9.50;12.40;;;;;;5031072;28;20486;-67
2024/01/31 10:49:22;;;;;;;20.63;16.67;;;9.50;12.40;;;;;;5029275;28;20455;-69
2024/01/31 10:51:51;;;;;;;19.87;14.40;;;9.60;12.40;;;;;;5028937;28;20471;-69
2024/01/31 10:54:22;;;;;;;20.73;15.80;;;9.60;12.30;;;;;;5028569;28;20467;-69
2024/01/31 10:56:49;;;;;;;18.97;15.50;;;9.70;12.20;;;;;;5027283;28;20483;-69
2024/01/31 10:59:17;;;;;;;23.40;18.70;;;9.90;12.20;;;;;;5023988;28;20825;-69
2024/01/31 11:01:52;;;;;;;23.63;16.20;;;9.90;12.00;;;;;;5030256;28;20475;-69
2024/01/31 11:04:19;;;;;;;20.93;15.40;;;10.00;11.80;;;;;;5027726;28;20542;-69
2024/01/31 11:06:49;;;;;;;23.33;16.53;;;10.10;11.60;;;;;;5027972;28;20494;-69
2024/01/31 11:09:22;;;;;;;21.30;16.73;;;10.30;11.60;;;;;;5026881;28;20538;-69
2024/01/31 11:11:49;;;;;;;21.53;15.67;;;10.40;11.40;;;;;;5026153;28;21047;-70
2024/01/31 11:14:26;;;;;;;23.43;17.07;;;10.70;11.20;;;;;;5028597;28;20471;-70
2024/01/31 11:16:53;;;;;;;20.40;16.03;;;10.90;10.90;;;;;;5022451;28;20493;-68
2024/01/31 11:19:20;;;;;;;23.00;17.17;;;11.10;10.50;;;;;;5024264;28;20480;-68
2024/01/31 11:21:47;;;;;;;22.77;16.47;;;11.20;10.00;;;;;;5026472;28;20507;-67
2024/01/31 11:24:14;;;;;;;22.87;17.00;;;11.30;9.70;;;;;;5019366;28;20822;-68
2024/01/31 11:26:41;;;;;;;19.20;15.13;;;11.60;10.10;;;;;;5024335;28;20495;-68
2024/01/31 11:29:08;;;;;;;18.73;15.03;;;11.70;9.50;;;;;;5031166;28;20459;-70
2024/01/31 11:31:37;;;;;;;21.80;16.87;;;11.80;8.90;;;;;;5022826;28;20533;-69
2024/01/31 11:34:03;;;;;;;21.23;15.20;;;11.90;8.80;;;;;;5027721;28;20466;-69
2024/01/31 11:36:30;;;;;;;21.57;17.20;;;11.90;8.70;;;;;;5025258;28;20952;-69
2024/01/31 11:38:57;;;;;;;19.40;14.10;;;12.00;8.50;;;;;;5022011;28;20463;-69
2024/01/31 11:41:24;;;;;;;18.33;15.10;;;12.10;8.40;;;;;;5022554;28;20490;-68
2024/01/31 11:43:51;;;;;;;19.37;15.57;;;12.00;8.20;;;;;;5025384;28;20966;-68
2024/01/31 11:46:18;;;;;;;19.67;15.90;;;12.20;8.20;;;;;;5018870;28;20459;-68
2024/01/31 11:48:46;;;;;;;24.83;15.60;;;12.10;8.10;;;;;;5025790;28;20478;-69
2024/01/31 11:51:13;;;;;;;20.07;15.00;;;12.20;8.00;;;;;;5022740;28;20455;-68
2024/01/31 11:53:40;;;;;;;26.67;17.07;;;12.20;8.00;;;;;;5024006;28;20463;-68
2024/01/31 11:56:08;;;;;;;18.97;15.00;;;12.30;8.00;;;;;;5026014;28;20464;-69
2024/01/31 11:58:36;;;;;;;16.67;13.90;;;12.40;7.70;;;;;;5024157;28;20487;-68
2024/01/31 12:01:03;;;;;;;21.13;16.20;;;12.50;7.90;;;;;;5027277;28;20482;-68
2024/01/31 12:03:30;;;;;;;19.47;14.93;;;12.60;7.60;;;;;;5027477;28;20503;-68
2024/01/31 12:05:59;;;;;;;19.70;14.73;;;12.60;8.30;;;;;;5029534;28;20467;-68
2024/01/31 12:08:27;;;;;;;19.03;14.57;;;12.60;7.60;;;;;;5022883;28;20491;-68
2024/01/31 12:10:54;;;;;;;15.90;13.00;;;12.70;7.70;;;;;;5024657;28;20454;-68
2024/01/31 12:13:21;;;;;;;18.07;13.43;;;12.80;7.60;;;;;;5023139;28;20490;-68
2024/01/31 12:15:48;;;;;;;16.60;12.10;;;12.80;7.30;;;;;;5025187;28;20469;-68
2024/01/31 12:18:15;;;;;;;21.47;13.80;;;12.80;7.20;;;;;;5026466;28;20510;-68
2024/01/31 12:20:42;;;;;;;20.47;16.60;;;12.90;7.30;;;;;;5021869;28;20470;-68
2024/01/31 12:23:10;;;;;;;21.90;17.10;;;12.90;7.30;;;;;;5022430;28;20993;-70
2024/01/31 12:25:37;;;;;;;21.63;14.83;;;12.90;7.40;;;;;;5026656;28;20477;-67
2024/01/31 12:28:05;;;;;;;29.40;15.50;;;13.00;7.30;;;;;;5028165;28;20493;-68
2024/01/31 12:30:32;;;;;;;20.80;16.30;;;13.00;7.20;;;;;;5029681;28;21164;-70
2024/01/31 12:32:59;;;;;;;32.10;25.00;;;13.00;7.10;;;;;;5028605;28;20466;-70
2024/01/31 12:35:26;;;;;;;49.03;34.97;;;13.10;7.10;;;;;;5028061;28;20533;-69